sensor_id;sensor_type;location;lat;lon;timestamp;P1;durP1;ratioP1;P2;durP2;ratioP2
68168;SDS011;54981;50.206;15.978;2022-10-16T00:00:35;34.92;;;29.13;;
68168;SDS011;54981;50.206;15.978;2022-10-16T00:03:02;37.00;;;29.25;;
68168;SDS011;54981;50.206;15.978;2022-10-16T00:05:28;36.33;;;28.55;;
68168;SDS011;54981;50.206;15.978;2022-10-16T00:07:54;35.80;;;29.70;;
68168;SDS011;54981;50.206;15.978;2022-10-16T00:10:19;35.33;;;29.52;;
68168;SDS011;54981;50.206;15.978;2022-10-16T00:12:44;33.80;;;27.65;;
68168;SDS011;54981;50.206;15.978;2022-10-16T00:15:10;35.00;;;29.42;;
68168;SDS011;54981;50.206;15.978;2022-10-16T00:17:36;33.60;;;29.05;;
68168;SDS011;54981;50.206;15.978;2022-10-16T00:20:01;34.15;;;29.17;;
68168;SDS011;54981;50.206;15.978;2022-10-16T00:22:27;37.25;;;28.23;;
68168;SDS011;54981;50.206;15.978;2022-10-16T00:24:53;33.67;;;27.67;;
68168;SDS011;54981;50.206;15.978;2022-10-16T00:27:19;33.78;;;27.58;;
68168;SDS011;54981;50.206;15.978;2022-10-16T00:29:44;35.03;;;29.40;;
68168;SDS011;54981;50.206;15.978;2022-10-16T00:32:10;36.35;;;28.98;;
68168;SDS011;54981;50.206;15.978;2022-10-16T00:34:35;35.08;;;28.48;;
68168;SDS011;54981;50.206;15.978;2022-10-16T00:37:00;34.65;;;27.33;;
68168;SDS011;54981;50.206;15.978;2022-10-16T00:39:26;34.17;;;28.50;;
68168;SDS011;54981;50.206;15.978;2022-10-16T00:41:51;33.47;;;28.60;;
68168;SDS011;54981;50.206;15.978;2022-10-16T00:47:21;34.00;;;27.77;;
68168;SDS011;54981;50.206;15.978;2022-10-16T00:49:51;32.08;;;28.33;;
68168;SDS011;54981;50.206;15.978;2022-10-16T00:52:21;32.90;;;27.52;;
68168;SDS011;54981;50.206;15.978;2022-10-16T00:54:47;32.22;;;28.70;;
68168;SDS011;54981;50.206;15.978;2022-10-16T00:57:15;34.58;;;28.10;;
68168;SDS011;54981;50.206;15.978;2022-10-16T00:59:41;34.60;;;27.80;;
68168;SDS011;54981;50.206;15.978;2022-10-16T01:02:08;33.80;;;27.73;;
68168;SDS011;54981;50.206;15.978;2022-10-16T01:04:41;32.17;;;27.83;;
68168;SDS011;54981;50.206;15.978;2022-10-16T01:09:45;32.92;;;26.70;;
68168;SDS011;54981;50.206;15.978;2022-10-16T01:15:16;31.13;;;25.60;;
68168;SDS011;54981;50.206;15.978;2022-10-16T01:23:08;29.25;;;25.38;;
68168;SDS011;54981;50.206;15.978;2022-10-16T01:28:51;31.83;;;26.08;;
68168;SDS011;54981;50.206;15.978;2022-10-16T01:31:23;31.27;;;26.13;;
68168;SDS011;54981;50.206;15.978;2022-10-16T01:33:55;31.05;;;26.55;;
68168;SDS011;54981;50.206;15.978;2022-10-16T01:36:26;29.75;;;26.42;;
68168;SDS011;54981;50.206;15.978;2022-10-16T01:38:56;29.75;;;26.55;;
68168;SDS011;54981;50.206;15.978;2022-10-16T01:41:26;29.10;;;24.95;;
68168;SDS011;54981;50.206;15.978;2022-10-16T01:44:01;29.67;;;26.10;;
68168;SDS011;54981;50.206;15.978;2022-10-16T01:46:33;29.67;;;25.73;;
68168;SDS011;54981;50.206;15.978;2022-10-16T01:49:02;30.10;;;23.80;;
68168;SDS011;54981;50.206;15.978;2022-10-16T01:51:29;27.77;;;24.23;;
68168;SDS011;54981;50.206;15.978;2022-10-16T01:53:55;28.27;;;24.67;;
68168;SDS011;54981;50.206;15.978;2022-10-16T01:56:23;29.13;;;25.77;;
68168;SDS011;54981;50.206;15.978;2022-10-16T01:59:12;30.02;;;26.27;;
68168;SDS011;54981;50.206;15.978;2022-10-16T02:01:40;29.08;;;25.30;;
68168;SDS011;54981;50.206;15.978;2022-10-16T02:04:15;30.70;;;26.33;;
68168;SDS011;54981;50.206;15.978;2022-10-16T02:06:45;28.40;;;25.33;;
68168;SDS011;54981;50.206;15.978;2022-10-16T02:09:11;28.85;;;25.50;;
68168;SDS011;54981;50.206;15.978;2022-10-16T02:11:36;27.58;;;24.15;;
68168;SDS011;54981;50.206;15.978;2022-10-16T02:14:03;28.70;;;25.58;;
68168;SDS011;54981;50.206;15.978;2022-10-16T02:16:35;28.77;;;24.92;;
68168;SDS011;54981;50.206;15.978;2022-10-16T02:19:05;31.13;;;27.33;;
68168;SDS011;54981;50.206;15.978;2022-10-16T02:21:33;31.38;;;26.75;;
68168;SDS011;54981;50.206;15.978;2022-10-16T02:26:57;32.75;;;27.38;;
68168;SDS011;54981;50.206;15.978;2022-10-16T02:29:25;30.83;;;26.13;;
68168;SDS011;54981;50.206;15.978;2022-10-16T02:31:53;30.42;;;25.38;;
68168;SDS011;54981;50.206;15.978;2022-10-16T02:34:22;31.67;;;26.73;;
68168;SDS011;54981;50.206;15.978;2022-10-16T02:36:50;32.30;;;28.20;;
68168;SDS011;54981;50.206;15.978;2022-10-16T02:39:18;35.97;;;29.20;;
68168;SDS011;54981;50.206;15.978;2022-10-16T02:41:44;30.77;;;27.27;;
68168;SDS011;54981;50.206;15.978;2022-10-16T02:44:10;33.13;;;27.45;;
68168;SDS011;54981;50.206;15.978;2022-10-16T02:46:35;31.23;;;26.98;;
68168;SDS011;54981;50.206;15.978;2022-10-16T02:49:00;31.17;;;26.35;;
68168;SDS011;54981;50.206;15.978;2022-10-16T02:51:26;32.17;;;27.65;;
68168;SDS011;54981;50.206;15.978;2022-10-16T02:53:51;32.45;;;27.90;;
68168;SDS011;54981;50.206;15.978;2022-10-16T02:56:17;31.17;;;27.63;;
68168;SDS011;54981;50.206;15.978;2022-10-16T02:58:42;34.08;;;28.75;;
68168;SDS011;54981;50.206;15.978;2022-10-16T03:01:07;31.42;;;28.00;;
68168;SDS011;54981;50.206;15.978;2022-10-16T03:03:33;30.33;;;26.92;;
68168;SDS011;54981;50.206;15.978;2022-10-16T03:05:58;29.73;;;25.63;;
68168;SDS011;54981;50.206;15.978;2022-10-16T03:08:24;30.20;;;26.88;;
68168;SDS011;54981;50.206;15.978;2022-10-16T03:10:50;30.65;;;25.42;;
68168;SDS011;54981;50.206;15.978;2022-10-16T03:13:16;30.55;;;25.23;;
68168;SDS011;54981;50.206;15.978;2022-10-16T03:15:41;29.27;;;26.02;;
68168;SDS011;54981;50.206;15.978;2022-10-16T03:18:07;30.23;;;24.92;;
68168;SDS011;54981;50.206;15.978;2022-10-16T03:20:32;29.45;;;26.25;;
68168;SDS011;54981;50.206;15.978;2022-10-16T03:22:58;28.58;;;23.52;;
68168;SDS011;54981;50.206;15.978;2022-10-16T03:25:23;27.48;;;24.10;;
68168;SDS011;54981;50.206;15.978;2022-10-16T03:27:48;27.92;;;24.52;;
68168;SDS011;54981;50.206;15.978;2022-10-16T03:30:14;27.55;;;24.52;;
68168;SDS011;54981;50.206;15.978;2022-10-16T03:32:40;27.15;;;24.23;;
68168;SDS011;54981;50.206;15.978;2022-10-16T03:35:05;27.27;;;24.42;;
68168;SDS011;54981;50.206;15.978;2022-10-16T03:37:31;27.73;;;23.60;;
68168;SDS011;54981;50.206;15.978;2022-10-16T03:39:56;26.95;;;24.05;;
68168;SDS011;54981;50.206;15.978;2022-10-16T03:42:22;27.70;;;24.13;;
68168;SDS011;54981;50.206;15.978;2022-10-16T03:44:47;28.38;;;24.92;;
68168;SDS011;54981;50.206;15.978;2022-10-16T03:47:13;27.10;;;23.15;;
68168;SDS011;54981;50.206;15.978;2022-10-16T03:49:38;26.67;;;23.15;;
68168;SDS011;54981;50.206;15.978;2022-10-16T03:52:03;27.73;;;21.75;;
68168;SDS011;54981;50.206;15.978;2022-10-16T03:54:29;24.73;;;22.13;;
68168;SDS011;54981;50.206;15.978;2022-10-16T03:56:54;24.45;;;21.95;;
68168;SDS011;54981;50.206;15.978;2022-10-16T03:59:20;26.42;;;23.67;;
68168;SDS011;54981;50.206;15.978;2022-10-16T04:01:45;23.30;;;20.88;;
68168;SDS011;54981;50.206;15.978;2022-10-16T04:04:10;24.73;;;20.27;;
68168;SDS011;54981;50.206;15.978;2022-10-16T04:06:36;23.50;;;20.70;;
68168;SDS011;54981;50.206;15.978;2022-10-16T04:09:01;24.63;;;20.10;;
68168;SDS011;54981;50.206;15.978;2022-10-16T04:11:27;23.38;;;20.20;;
68168;SDS011;54981;50.206;15.978;2022-10-16T04:13:52;24.25;;;20.50;;
68168;SDS011;54981;50.206;15.978;2022-10-16T04:16:18;22.45;;;20.05;;
68168;SDS011;54981;50.206;15.978;2022-10-16T04:18:43;23.17;;;20.67;;
68168;SDS011;54981;50.206;15.978;2022-10-16T04:21:09;22.48;;;18.92;;
68168;SDS011;54981;50.206;15.978;2022-10-16T04:23:34;22.60;;;20.15;;
68168;SDS011;54981;50.206;15.978;2022-10-16T04:26:00;23.42;;;20.40;;
68168;SDS011;54981;50.206;15.978;2022-10-16T04:28:26;22.15;;;19.75;;
68168;SDS011;54981;50.206;15.978;2022-10-16T04:30:51;22.75;;;19.92;;
68168;SDS011;54981;50.206;15.978;2022-10-16T04:33:17;22.45;;;19.55;;
68168;SDS011;54981;50.206;15.978;2022-10-16T04:35:42;20.35;;;17.40;;
68168;SDS011;54981;50.206;15.978;2022-10-16T04:38:07;21.25;;;18.30;;
68168;SDS011;54981;50.206;15.978;2022-10-16T04:40:33;20.52;;;18.38;;
68168;SDS011;54981;50.206;15.978;2022-10-16T04:43:01;20.60;;;18.38;;
68168;SDS011;54981;50.206;15.978;2022-10-16T04:45:27;21.33;;;18.38;;
68168;SDS011;54981;50.206;15.978;2022-10-16T04:47:53;21.55;;;17.67;;
68168;SDS011;54981;50.206;15.978;2022-10-16T04:50:22;21.98;;;19.05;;
68168;SDS011;54981;50.206;15.978;2022-10-16T04:52:47;19.83;;;17.73;;
68168;SDS011;54981;50.206;15.978;2022-10-16T04:55:12;19.65;;;16.83;;
68168;SDS011;54981;50.206;15.978;2022-10-16T04:57:38;21.65;;;19.42;;
68168;SDS011;54981;50.206;15.978;2022-10-16T05:00:05;33.38;;;28.10;;
68168;SDS011;54981;50.206;15.978;2022-10-16T05:02:31;20.38;;;18.13;;
68168;SDS011;54981;50.206;15.978;2022-10-16T05:04:56;19.23;;;16.92;;
68168;SDS011;54981;50.206;15.978;2022-10-16T05:07:21;20.20;;;17.98;;
68168;SDS011;54981;50.206;15.978;2022-10-16T05:09:47;19.85;;;17.73;;
68168;SDS011;54981;50.206;15.978;2022-10-16T05:12:12;18.42;;;15.57;;
68168;SDS011;54981;50.206;15.978;2022-10-16T05:14:37;19.05;;;17.02;;
68168;SDS011;54981;50.206;15.978;2022-10-16T05:17:03;19.30;;;17.40;;
68168;SDS011;54981;50.206;15.978;2022-10-16T05:19:28;18.83;;;16.88;;
68168;SDS011;54981;50.206;15.978;2022-10-16T05:21:53;18.48;;;16.63;;
68168;SDS011;54981;50.206;15.978;2022-10-16T05:24:19;19.13;;;16.17;;
68168;SDS011;54981;50.206;15.978;2022-10-16T05:26:44;17.40;;;15.60;;
68168;SDS011;54981;50.206;15.978;2022-10-16T05:29:10;18.25;;;16.13;;
68168;SDS011;54981;50.206;15.978;2022-10-16T05:31:35;18.13;;;16.08;;
68168;SDS011;54981;50.206;15.978;2022-10-16T05:34:01;18.60;;;16.77;;
68168;SDS011;54981;50.206;15.978;2022-10-16T05:36:27;18.30;;;16.40;;
68168;SDS011;54981;50.206;15.978;2022-10-16T05:38:52;18.65;;;16.65;;
68168;SDS011;54981;50.206;15.978;2022-10-16T05:41:18;19.75;;;17.05;;
68168;SDS011;54981;50.206;15.978;2022-10-16T05:43:48;18.63;;;15.75;;
68168;SDS011;54981;50.206;15.978;2022-10-16T05:46:14;18.45;;;16.50;;
68168;SDS011;54981;50.206;15.978;2022-10-16T05:48:39;19.75;;;17.17;;
68168;SDS011;54981;50.206;15.978;2022-10-16T05:51:06;19.75;;;17.65;;
68168;SDS011;54981;50.206;15.978;2022-10-16T05:53:33;19.63;;;17.60;;
68168;SDS011;54981;50.206;15.978;2022-10-16T05:55:59;19.48;;;17.38;;
68168;SDS011;54981;50.206;15.978;2022-10-16T05:58:25;19.92;;;17.48;;
68168;SDS011;54981;50.206;15.978;2022-10-16T06:00:57;20.38;;;17.98;;
68168;SDS011;54981;50.206;15.978;2022-10-16T06:03:27;20.40;;;18.20;;
68168;SDS011;54981;50.206;15.978;2022-10-16T06:05:52;18.30;;;16.38;;
68168;SDS011;54981;50.206;15.978;2022-10-16T06:08:19;20.63;;;17.17;;
68168;SDS011;54981;50.206;15.978;2022-10-16T06:10:45;20.23;;;17.55;;
68168;SDS011;54981;50.206;15.978;2022-10-16T06:13:11;18.95;;;17.00;;
68168;SDS011;54981;50.206;15.978;2022-10-16T06:15:37;22.85;;;19.52;;
68168;SDS011;54981;50.206;15.978;2022-10-16T06:18:04;21.88;;;19.50;;
68168;SDS011;54981;50.206;15.978;2022-10-16T06:20:29;23.00;;;19.65;;
68168;SDS011;54981;50.206;15.978;2022-10-16T06:22:55;23.85;;;19.73;;
68168;SDS011;54981;50.206;15.978;2022-10-16T06:25:20;25.25;;;20.23;;
68168;SDS011;54981;50.206;15.978;2022-10-16T06:27:45;24.15;;;20.38;;
68168;SDS011;54981;50.206;15.978;2022-10-16T06:30:11;24.27;;;20.70;;
68168;SDS011;54981;50.206;15.978;2022-10-16T06:32:36;24.33;;;20.02;;
68168;SDS011;54981;50.206;15.978;2022-10-16T06:35:02;24.60;;;21.85;;
68168;SDS011;54981;50.206;15.978;2022-10-16T06:37:27;27.33;;;21.05;;
68168;SDS011;54981;50.206;15.978;2022-10-16T06:39:52;23.85;;;20.92;;
68168;SDS011;54981;50.206;15.978;2022-10-16T06:42:18;23.55;;;20.52;;
68168;SDS011;54981;50.206;15.978;2022-10-16T06:44:44;24.23;;;21.05;;
68168;SDS011;54981;50.206;15.978;2022-10-16T06:47:09;26.77;;;21.83;;
68168;SDS011;54981;50.206;15.978;2022-10-16T06:49:35;25.60;;;22.15;;
68168;SDS011;54981;50.206;15.978;2022-10-16T06:52:00;24.55;;;21.33;;
68168;SDS011;54981;50.206;15.978;2022-10-16T06:54:26;25.38;;;21.15;;
68168;SDS011;54981;50.206;15.978;2022-10-16T06:56:52;27.98;;;21.60;;
68168;SDS011;54981;50.206;15.978;2022-10-16T06:59:19;25.30;;;22.30;;
68168;SDS011;54981;50.206;15.978;2022-10-16T07:01:47;25.92;;;21.85;;
68168;SDS011;54981;50.206;15.978;2022-10-16T07:04:13;24.95;;;20.52;;
68168;SDS011;54981;50.206;15.978;2022-10-16T07:06:38;26.52;;;20.75;;
68168;SDS011;54981;50.206;15.978;2022-10-16T07:09:05;24.73;;;22.02;;
68168;SDS011;54981;50.206;15.978;2022-10-16T07:11:34;25.13;;;21.15;;
68168;SDS011;54981;50.206;15.978;2022-10-16T07:14:01;25.90;;;20.63;;
68168;SDS011;54981;50.206;15.978;2022-10-16T07:16:27;25.48;;;19.50;;
68168;SDS011;54981;50.206;15.978;2022-10-16T07:18:54;24.80;;;20.50;;
68168;SDS011;54981;50.206;15.978;2022-10-16T07:21:24;27.77;;;21.77;;
68168;SDS011;54981;50.206;15.978;2022-10-16T07:23:52;25.83;;;20.95;;
68168;SDS011;54981;50.206;15.978;2022-10-16T07:26:18;26.65;;;21.80;;
68168;SDS011;54981;50.206;15.978;2022-10-16T07:28:43;24.48;;;20.38;;
68168;SDS011;54981;50.206;15.978;2022-10-16T07:31:10;25.98;;;20.70;;
68168;SDS011;54981;50.206;15.978;2022-10-16T07:33:37;25.88;;;21.75;;
68168;SDS011;54981;50.206;15.978;2022-10-16T07:36:03;24.95;;;20.67;;
68168;SDS011;54981;50.206;15.978;2022-10-16T07:38:29;25.50;;;20.98;;
68168;SDS011;54981;50.206;15.978;2022-10-16T07:41:01;35.05;;;23.98;;
68168;SDS011;54981;50.206;15.978;2022-10-16T07:43:29;26.58;;;21.90;;
68168;SDS011;54981;50.206;15.978;2022-10-16T07:45:54;26.55;;;21.42;;
68168;SDS011;54981;50.206;15.978;2022-10-16T07:48:20;29.13;;;22.75;;
68168;SDS011;54981;50.206;15.978;2022-10-16T07:50:47;28.90;;;21.80;;
68168;SDS011;54981;50.206;15.978;2022-10-16T07:53:13;28.77;;;22.05;;
68168;SDS011;54981;50.206;15.978;2022-10-16T07:55:38;29.27;;;23.13;;
68168;SDS011;54981;50.206;15.978;2022-10-16T07:58:04;27.65;;;21.73;;
68168;SDS011;54981;50.206;15.978;2022-10-16T08:00:30;27.02;;;22.27;;
68168;SDS011;54981;50.206;15.978;2022-10-16T08:02:56;25.77;;;20.67;;
68168;SDS011;54981;50.206;15.978;2022-10-16T08:05:25;30.63;;;21.05;;
68168;SDS011;54981;50.206;15.978;2022-10-16T08:07:54;26.63;;;20.38;;
68168;SDS011;54981;50.206;15.978;2022-10-16T08:10:20;25.35;;;20.02;;
68168;SDS011;54981;50.206;15.978;2022-10-16T08:12:47;24.67;;;19.67;;
68168;SDS011;54981;50.206;15.978;2022-10-16T08:15:12;26.65;;;21.05;;
68168;SDS011;54981;50.206;15.978;2022-10-16T08:17:38;27.13;;;22.20;;
68168;SDS011;54981;50.206;15.978;2022-10-16T08:20:03;25.08;;;20.33;;
68168;SDS011;54981;50.206;15.978;2022-10-16T08:22:29;25.20;;;20.30;;
68168;SDS011;54981;50.206;15.978;2022-10-16T08:24:54;24.23;;;20.05;;
68168;SDS011;54981;50.206;15.978;2022-10-16T08:27:20;27.77;;;21.40;;
68168;SDS011;54981;50.206;15.978;2022-10-16T08:29:45;26.58;;;19.77;;
68168;SDS011;54981;50.206;15.978;2022-10-16T08:32:10;24.25;;;18.88;;
68168;SDS011;54981;50.206;15.978;2022-10-16T08:34:36;24.63;;;20.63;;
68168;SDS011;54981;50.206;15.978;2022-10-16T08:37:01;27.00;;;21.08;;
68168;SDS011;54981;50.206;15.978;2022-10-16T08:39:27;28.30;;;21.23;;
68168;SDS011;54981;50.206;15.978;2022-10-16T08:47:39;24.50;;;20.20;;
68168;SDS011;54981;50.206;15.978;2022-10-16T08:50:14;22.88;;;19.60;;
68168;SDS011;54981;50.206;15.978;2022-10-16T08:52:48;22.85;;;19.27;;
68168;SDS011;54981;50.206;15.978;2022-10-16T08:57:59;24.58;;;19.77;;
68168;SDS011;54981;50.206;15.978;2022-10-16T09:00:25;21.25;;;17.83;;
68168;SDS011;54981;50.206;15.978;2022-10-16T09:02:53;22.42;;;18.75;;
68168;SDS011;54981;50.206;15.978;2022-10-16T09:10:57;19.67;;;16.20;;
68168;SDS011;54981;50.206;15.978;2022-10-16T09:16:30;17.58;;;15.13;;
68168;SDS011;54981;50.206;15.978;2022-10-16T09:19:04;19.15;;;15.70;;
68168;SDS011;54981;50.206;15.978;2022-10-16T09:21:41;23.58;;;16.83;;
68168;SDS011;54981;50.206;15.978;2022-10-16T09:24:13;19.65;;;15.98;;
68168;SDS011;54981;50.206;15.978;2022-10-16T09:26:41;22.25;;;16.23;;
68168;SDS011;54981;50.206;15.978;2022-10-16T09:29:08;21.60;;;16.73;;
68168;SDS011;54981;50.206;15.978;2022-10-16T09:31:36;21.02;;;15.57;;
68168;SDS011;54981;50.206;15.978;2022-10-16T09:34:02;18.67;;;15.77;;
68168;SDS011;54981;50.206;15.978;2022-10-16T09:36:31;18.60;;;16.58;;
68168;SDS011;54981;50.206;15.978;2022-10-16T09:39:08;22.52;;;17.60;;
68168;SDS011;54981;50.206;15.978;2022-10-16T09:41:35;18.33;;;15.00;;
68168;SDS011;54981;50.206;15.978;2022-10-16T09:44:03;21.35;;;17.05;;
68168;SDS011;54981;50.206;15.978;2022-10-16T09:46:38;20.20;;;15.77;;
68168;SDS011;54981;50.206;15.978;2022-10-16T09:49:16;17.45;;;15.57;;
68168;SDS011;54981;50.206;15.978;2022-10-16T09:51:46;18.52;;;15.27;;
68168;SDS011;54981;50.206;15.978;2022-10-16T09:54:14;17.67;;;14.73;;
68168;SDS011;54981;50.206;15.978;2022-10-16T09:56:40;15.93;;;14.23;;
68168;SDS011;54981;50.206;15.978;2022-10-16T09:59:13;19.85;;;14.32;;
68168;SDS011;54981;50.206;15.978;2022-10-16T10:04:06;17.77;;;14.93;;
68168;SDS011;54981;50.206;15.978;2022-10-16T10:09:00;19.10;;;14.43;;
68168;SDS011;54981;50.206;15.978;2022-10-16T10:16:48;20.13;;;16.33;;
68168;SDS011;54981;50.206;15.978;2022-10-16T10:19:18;18.30;;;15.70;;
68168;SDS011;54981;50.206;15.978;2022-10-16T10:21:46;23.05;;;16.40;;
68168;SDS011;54981;50.206;15.978;2022-10-16T10:24:13;20.70;;;15.52;;
68168;SDS011;54981;50.206;15.978;2022-10-16T10:26:51;21.90;;;15.80;;
68168;SDS011;54981;50.206;15.978;2022-10-16T10:32:08;20.70;;;16.42;;
68168;SDS011;54981;50.206;15.978;2022-10-16T10:40:45;22.27;;;18.33;;
68168;SDS011;54981;50.206;15.978;2022-10-16T10:43:25;21.17;;;17.90;;
68168;SDS011;54981;50.206;15.978;2022-10-16T10:45:59;22.08;;;15.60;;
68168;SDS011;54981;50.206;15.978;2022-10-16T10:48:44;21.52;;;17.02;;
68168;SDS011;54981;50.206;15.978;2022-10-16T10:51:25;22.60;;;17.48;;
68168;SDS011;54981;50.206;15.978;2022-10-16T10:56:57;21.33;;;15.75;;
68168;SDS011;54981;50.206;15.978;2022-10-16T11:02:13;21.10;;;16.70;;
68168;SDS011;54981;50.206;15.978;2022-10-16T11:07:31;21.98;;;17.38;;
68168;SDS011;54981;50.206;15.978;2022-10-16T11:10:12;24.10;;;16.27;;
68168;SDS011;54981;50.206;15.978;2022-10-16T11:12:41;23.75;;;18.48;;
68168;SDS011;54981;50.206;15.978;2022-10-16T11:15:17;25.15;;;17.10;;
68168;SDS011;54981;50.206;15.978;2022-10-16T11:17:51;24.52;;;17.50;;
68168;SDS011;54981;50.206;15.978;2022-10-16T11:20:24;22.55;;;17.05;;
68168;SDS011;54981;50.206;15.978;2022-10-16T11:22:57;21.33;;;16.60;;
68168;SDS011;54981;50.206;15.978;2022-10-16T11:25:28;21.10;;;16.13;;
68168;SDS011;54981;50.206;15.978;2022-10-16T11:27:57;21.33;;;16.38;;
68168;SDS011;54981;50.206;15.978;2022-10-16T11:30:28;20.98;;;17.08;;
68168;SDS011;54981;50.206;15.978;2022-10-16T11:35:37;21.08;;;16.85;;
68168;SDS011;54981;50.206;15.978;2022-10-16T11:40:45;23.40;;;17.48;;
68168;SDS011;54981;50.206;15.978;2022-10-16T11:43:15;23.98;;;16.92;;
68168;SDS011;54981;50.206;15.978;2022-10-16T11:45:49;23.67;;;17.45;;
68168;SDS011;54981;50.206;15.978;2022-10-16T11:48:35;22.42;;;16.73;;
68168;SDS011;54981;50.206;15.978;2022-10-16T11:56:51;23.15;;;16.73;;
68168;SDS011;54981;50.206;15.978;2022-10-16T12:04:43;22.52;;;17.15;;
68168;SDS011;54981;50.206;15.978;2022-10-16T12:07:17;23.00;;;16.60;;
68168;SDS011;54981;50.206;15.978;2022-10-16T12:09:47;21.25;;;15.98;;
68168;SDS011;54981;50.206;15.978;2022-10-16T12:17:40;22.05;;;17.63;;
68168;SDS011;54981;50.206;15.978;2022-10-16T12:22:37;23.10;;;17.60;;
68168;SDS011;54981;50.206;15.978;2022-10-16T12:25:32;25.55;;;19.23;;
68168;SDS011;54981;50.206;15.978;2022-10-16T12:28:04;24.20;;;19.42;;
68168;SDS011;54981;50.206;15.978;2022-10-16T12:30:35;22.40;;;18.10;;
68168;SDS011;54981;50.206;15.978;2022-10-16T12:33:19;23.85;;;18.00;;
68168;SDS011;54981;50.206;15.978;2022-10-16T12:35:47;23.17;;;19.02;;
68168;SDS011;54981;50.206;15.978;2022-10-16T12:40:43;26.48;;;20.10;;
68168;SDS011;54981;50.206;15.978;2022-10-16T12:43:23;24.27;;;19.52;;
68168;SDS011;54981;50.206;15.978;2022-10-16T12:51:11;25.30;;;19.45;;
68168;SDS011;54981;50.206;15.978;2022-10-16T12:54:14;25.02;;;19.42;;
68168;SDS011;54981;50.206;15.978;2022-10-16T12:57:01;25.70;;;20.88;;
68168;SDS011;54981;50.206;15.978;2022-10-16T13:05:25;25.98;;;21.52;;
68168;SDS011;54981;50.206;15.978;2022-10-16T13:08:11;27.20;;;21.13;;
68168;SDS011;54981;50.206;15.978;2022-10-16T13:16:12;27.50;;;19.55;;
68168;SDS011;54981;50.206;15.978;2022-10-16T13:29:19;29.25;;;19.85;;
68168;SDS011;54981;50.206;15.978;2022-10-16T13:31:45;26.67;;;21.23;;
68168;SDS011;54981;50.206;15.978;2022-10-16T13:34:15;28.50;;;22.25;;
68168;SDS011;54981;50.206;15.978;2022-10-16T13:36:45;25.87;;;20.30;;
68168;SDS011;54981;50.206;15.978;2022-10-16T13:41:46;25.83;;;20.05;;
68168;SDS011;54981;50.206;15.978;2022-10-16T13:44:22;25.67;;;19.95;;
68168;SDS011;54981;50.206;15.978;2022-10-16T13:46:57;25.60;;;20.50;;
68168;SDS011;54981;50.206;15.978;2022-10-16T13:49:23;36.13;;;25.55;;
68168;SDS011;54981;50.206;15.978;2022-10-16T13:51:55;30.55;;;21.98;;
68168;SDS011;54981;50.206;15.978;2022-10-16T13:54:22;27.73;;;22.30;;
68168;SDS011;54981;50.206;15.978;2022-10-16T13:56:48;26.95;;;20.55;;
68168;SDS011;54981;50.206;15.978;2022-10-16T13:59:26;27.02;;;20.70;;
68168;SDS011;54981;50.206;15.978;2022-10-16T14:01:58;25.83;;;20.42;;
68168;SDS011;54981;50.206;15.978;2022-10-16T14:04:26;26.30;;;20.85;;
68168;SDS011;54981;50.206;15.978;2022-10-16T14:06:56;29.20;;;22.85;;
68168;SDS011;54981;50.206;15.978;2022-10-16T14:09:23;27.70;;;21.92;;
68168;SDS011;54981;50.206;15.978;2022-10-16T14:11:58;28.52;;;22.40;;
68168;SDS011;54981;50.206;15.978;2022-10-16T14:14:47;29.05;;;21.73;;
68168;SDS011;54981;50.206;15.978;2022-10-16T14:17:16;29.98;;;23.30;;
68168;SDS011;54981;50.206;15.978;2022-10-16T14:19:54;29.65;;;23.58;;
68168;SDS011;54981;50.206;15.978;2022-10-16T14:22:24;32.97;;;25.25;;
68168;SDS011;54981;50.206;15.978;2022-10-16T14:24:51;29.98;;;23.45;;
68168;SDS011;54981;50.206;15.978;2022-10-16T14:27:34;32.80;;;24.73;;
68168;SDS011;54981;50.206;15.978;2022-10-16T14:30:17;31.25;;;23.65;;
68168;SDS011;54981;50.206;15.978;2022-10-16T14:37:56;33.23;;;25.70;;
68168;SDS011;54981;50.206;15.978;2022-10-16T14:40:24;30.35;;;24.48;;
68168;SDS011;54981;50.206;15.978;2022-10-16T14:42:57;34.97;;;24.63;;
68168;SDS011;54981;50.206;15.978;2022-10-16T14:45:24;31.23;;;25.30;;
68168;SDS011;54981;50.206;15.978;2022-10-16T14:47:57;34.08;;;26.63;;
68168;SDS011;54981;50.206;15.978;2022-10-16T14:50:25;30.65;;;25.13;;
68168;SDS011;54981;50.206;15.978;2022-10-16T14:52:50;31.50;;;25.02;;
68168;SDS011;54981;50.206;15.978;2022-10-16T14:55:16;32.53;;;26.42;;
68168;SDS011;54981;50.206;15.978;2022-10-16T14:57:42;33.45;;;25.75;;
68168;SDS011;54981;50.206;15.978;2022-10-16T15:00:16;35.20;;;26.33;;
68168;SDS011;54981;50.206;15.978;2022-10-16T15:02:44;32.10;;;25.58;;
68168;SDS011;54981;50.206;15.978;2022-10-16T15:05:18;33.50;;;26.80;;
68168;SDS011;54981;50.206;15.978;2022-10-16T15:07:48;34.10;;;26.83;;
68168;SDS011;54981;50.206;15.978;2022-10-16T15:10:14;34.85;;;27.10;;
68168;SDS011;54981;50.206;15.978;2022-10-16T15:12:44;34.80;;;28.13;;
68168;SDS011;54981;50.206;15.978;2022-10-16T15:17:48;37.03;;;28.10;;
68168;SDS011;54981;50.206;15.978;2022-10-16T15:20:21;37.28;;;27.67;;
68168;SDS011;54981;50.206;15.978;2022-10-16T15:22:50;35.40;;;27.63;;
68168;SDS011;54981;50.206;15.978;2022-10-16T15:27:59;35.83;;;28.25;;
68168;SDS011;54981;50.206;15.978;2022-10-16T15:30:26;35.72;;;27.25;;
68168;SDS011;54981;50.206;15.978;2022-10-16T15:32:52;35.33;;;28.33;;
68168;SDS011;54981;50.206;15.978;2022-10-16T15:35:17;34.78;;;28.13;;
68168;SDS011;54981;50.206;15.978;2022-10-16T15:37:42;36.53;;;28.17;;
68168;SDS011;54981;50.206;15.978;2022-10-16T15:40:09;36.83;;;28.63;;
68168;SDS011;54981;50.206;15.978;2022-10-16T15:42:35;36.13;;;29.85;;
68168;SDS011;54981;50.206;15.978;2022-10-16T15:45:00;37.70;;;31.15;;
68168;SDS011;54981;50.206;15.978;2022-10-16T15:47:26;45.78;;;30.52;;
68168;SDS011;54981;50.206;15.978;2022-10-16T15:49:51;40.75;;;32.03;;
68168;SDS011;54981;50.206;15.978;2022-10-16T15:52:16;39.60;;;31.23;;
68168;SDS011;54981;50.206;15.978;2022-10-16T15:54:42;41.72;;;31.98;;
68168;SDS011;54981;50.206;15.978;2022-10-16T15:57:08;37.08;;;32.25;;
68168;SDS011;54981;50.206;15.978;2022-10-16T15:59:33;38.35;;;31.20;;
68168;SDS011;54981;50.206;15.978;2022-10-16T16:01:58;43.55;;;32.60;;
68168;SDS011;54981;50.206;15.978;2022-10-16T16:04:24;41.80;;;32.90;;
68168;SDS011;54981;50.206;15.978;2022-10-16T16:06:49;42.10;;;33.10;;
68168;SDS011;54981;50.206;15.978;2022-10-16T16:09:14;43.65;;;34.17;;
68168;SDS011;54981;50.206;15.978;2022-10-16T16:11:40;42.95;;;33.15;;
68168;SDS011;54981;50.206;15.978;2022-10-16T16:14:07;39.45;;;32.08;;
68168;SDS011;54981;50.206;15.978;2022-10-16T16:16:35;45.47;;;33.22;;
68168;SDS011;54981;50.206;15.978;2022-10-16T16:19:03;44.45;;;32.13;;
68168;SDS011;54981;50.206;15.978;2022-10-16T16:21:31;43.63;;;32.63;;
68168;SDS011;54981;50.206;15.978;2022-10-16T16:23:56;40.95;;;31.73;;
68168;SDS011;54981;50.206;15.978;2022-10-16T16:26:31;41.08;;;32.63;;